createdAt,value
2019-03-28T00:01:46.130Z,3.97
2019-03-28T00:06:48.096Z,3.93
2019-03-28T00:11:49.847Z,3.63
2019-03-28T00:16:51.586Z,3.65
2019-03-28T00:21:54.231Z,3.16
2019-03-28T00:26:55.992Z,2.88
2019-03-28T00:31:57.725Z,3.03
2019-03-28T00:36:59.484Z,3.17
2019-03-28T00:42:01.194Z,3.08
2019-03-28T00:47:03.023Z,3.02
2019-03-28T00:52:04.845Z,3.18
2019-03-28T00:57:06.614Z,3.16
2019-03-28T01:02:08.373Z,3.09
2019-03-28T01:07:10.119Z,3.15
2019-03-28T01:12:11.830Z,3.16
2019-03-28T01:17:13.598Z,3.17
2019-03-28T01:22:15.351Z,2.84
2019-03-28T01:27:18.048Z,2.92
2019-03-28T01:32:19.785Z,2.67
2019-03-28T01:37:21.542Z,2.32
2019-03-28T01:42:23.262Z,2.46
2019-03-28T01:47:24.972Z,2.71
2019-03-28T01:52:26.788Z,2.10
2019-03-28T01:57:28.566Z,2.11
2019-03-28T02:02:30.319Z,1.92
2019-03-28T02:07:32.070Z,1.92
2019-03-28T02:12:33.779Z,2.07
2019-03-28T02:17:35.514Z,2.00
2019-03-28T02:22:37.265Z,1.60
2019-03-28T02:27:39.826Z,1.31
2019-03-28T02:32:41.556Z,1.31
2019-03-28T02:37:43.346Z,1.44
2019-03-28T02:42:45.056Z,1.64
2019-03-28T02:47:46.759Z,1.28
2019-03-28T02:52:48.463Z,1.10
2019-03-28T02:57:50.215Z,1.14
2019-03-28T03:02:52.051Z,1.27
2019-03-28T03:07:53.856Z,1.18
2019-03-28T03:12:55.606Z,1.36
2019-03-28T03:17:57.304Z,1.39
2019-03-28T03:22:59.012Z,1.53
2019-03-28T03:28:00.892Z,1.53
2019-03-28T03:33:02.614Z,1.49
2019-03-28T03:38:05.330Z,1.47
2019-03-28T03:43:07.071Z,1.52
2019-03-28T03:48:08.800Z,1.67
2019-03-28T03:53:10.563Z,1.88
2019-03-28T03:58:16.085Z,1.85
2019-03-28T04:03:15.878Z,1.74
2019-03-28T04:08:17.563Z,1.76
2019-03-28T04:13:19.207Z,1.61
2019-03-28T04:18:22.221Z,1.66
2019-03-28T04:23:24.358Z,1.65
2019-03-28T04:28:32.145Z,1.56
2019-03-28T04:33:29.703Z,1.53
2019-03-28T04:38:31.368Z,1.39
2019-03-28T04:43:33.106Z,0.90
2019-03-28T04:48:34.790Z,0.79
2019-03-28T04:53:37.524Z,-0.06
2019-03-28T04:58:44.788Z,0.27
2019-03-28T05:03:42.992Z,0.39
2019-03-28T05:08:44.753Z,0.61
2019-03-28T05:13:46.519Z,0.76
2019-03-28T05:18:48.238Z,1.19
2019-03-28T05:23:49.953Z,1.46
2019-03-28T05:28:57.400Z,1.84
2019-03-28T05:33:55.334Z,2.16
2019-03-28T05:38:57.121Z,3.05
2019-03-28T05:43:58.892Z,3.90
2019-03-28T05:49:00.623Z,4.39
2019-03-28T05:54:02.347Z,4.64
2019-03-28T05:59:10.697Z,5.16
2019-03-28T06:04:08.334Z,5.56
2019-03-28T06:09:10.180Z,5.65
2019-03-28T06:14:11.892Z,6.02
2019-03-28T06:19:13.562Z,6.52
2019-03-28T06:24:15.249Z,7.09
2019-03-28T06:29:23.872Z,7.18
2019-03-28T06:34:20.591Z,7.59
2019-03-28T06:39:22.313Z,7.98
2019-03-28T06:44:24.024Z,8.51
2019-03-28T06:49:25.809Z,8.95
2019-03-28T06:54:27.582Z,9.35
2019-03-28T06:59:37.201Z,9.40
2019-03-28T07:04:32.995Z,9.75
2019-03-28T07:09:34.666Z,10.36
2019-03-28T07:14:36.432Z,10.91
2019-03-28T07:19:38.182Z,11.41
2019-03-28T07:24:39.945Z,11.98
2019-03-28T07:29:50.915Z,12.07
2019-03-28T07:34:45.427Z,12.13
2019-03-28T07:39:47.220Z,12.30
2019-03-28T07:44:48.946Z,12.24
2019-03-28T07:49:51.830Z,12.49
2019-03-28T07:54:53.581Z,11.94
2019-03-28T08:00:03.977Z,11.26
2019-03-28T08:05:01.351Z,10.58
2019-03-28T08:10:06.438Z,10.10
2019-03-28T08:15:09.351Z,9.17
2019-03-28T08:20:11.062Z,9.15
2019-03-28T08:25:13.773Z,9.26
2019-03-28T08:30:18.687Z,8.78
2019-03-28T08:35:18.973Z,8.68
2019-03-28T08:40:32.954Z,8.38
2019-03-28T08:45:34.706Z,8.31
2019-03-28T08:50:36.521Z,8.46
2019-03-28T08:55:38.233Z,8.38
2019-03-28T09:00:51.567Z,8.45
2019-03-28T09:05:44.773Z,8.10
2019-03-28T09:10:46.529Z,8.25
2019-03-28T09:15:50.642Z,8.30
2019-03-28T09:20:52.452Z,8.39
2019-03-28T09:25:54.174Z,8.63
2019-03-28T09:30:55.962Z,9.53
2019-03-28T09:35:57.680Z,10.23
2019-03-28T09:40:59.457Z,10.73
2019-03-28T09:46:02.020Z,10.74
2019-03-28T09:51:03.869Z,11.28
2019-03-28T09:56:05.639Z,12.10
2019-03-28T10:01:07.354Z,11.72
2019-03-28T10:06:09.104Z,12.05
2019-03-28T10:11:10.831Z,12.40
2019-03-28T10:16:13.560Z,12.13
2019-03-28T10:21:15.328Z,12.33
2019-03-28T10:26:17.078Z,12.51
2019-03-28T10:31:18.950Z,12.43
2019-03-28T10:36:20.685Z,12.34
2019-03-28T10:41:25.631Z,11.34
2019-03-28T10:46:25.990Z,10.92
2019-03-28T10:51:27.729Z,11.01
2019-03-28T10:56:29.557Z,10.34
2019-03-28T11:01:47.480Z,10.63
2019-03-28T11:06:35.921Z,11.10
2019-03-28T11:11:37.634Z,11.52
2019-03-28T11:16:39.413Z,11.64
2019-03-28T11:21:41.117Z,11.38
2019-03-28T11:26:42.860Z,11.26
2019-03-28T11:31:47.751Z,11.30
2019-03-28T11:36:48.292Z,11.02
2019-03-28T11:41:51.069Z,11.03
2019-03-28T11:46:52.758Z,11.63
2019-03-28T11:51:54.499Z,12.01
2019-03-28T11:56:56.252Z,12.79
2019-03-28T12:02:00.525Z,12.80
2019-03-28T12:07:01.602Z,12.68
2019-03-28T12:12:04.453Z,13.25
2019-03-28T12:17:06.198Z,13.24
2019-03-28T12:22:07.954Z,12.98
2019-03-28T12:27:09.842Z,12.73
2019-03-28T12:32:14.224Z,12.92
2019-03-28T12:37:15.366Z,13.14
2019-03-28T12:42:17.188Z,13.21
2019-03-28T12:47:18.932Z,13.15
2019-03-28T12:52:20.789Z,12.69
2019-03-28T12:57:22.482Z,12.68
2019-03-28T13:02:31.455Z,12.81
2019-03-28T13:07:28.156Z,12.92
2019-03-28T13:12:30.082Z,13.02
2019-03-28T13:17:31.899Z,12.98
2019-03-28T13:22:33.648Z,12.58
2019-03-28T13:27:36.560Z,12.26
2019-03-28T13:32:41.963Z,12.13
2019-03-28T13:37:42.441Z,12.44
2019-03-28T13:42:44.282Z,12.44
2019-03-28T13:47:45.994Z,12.57
2019-03-28T13:52:48.858Z,12.20
2019-03-28T13:57:52.266Z,11.77
2019-03-28T14:02:58.552Z,11.70
2019-03-28T14:07:57.920Z,11.56
2019-03-28T14:13:00.046Z,11.16
2019-03-28T14:18:01.823Z,11.17
2019-03-28T14:23:04.822Z,10.97
2019-03-28T14:28:06.661Z,10.79
2019-03-28T14:33:11.491Z,10.71
2019-03-28T14:38:12.184Z,10.62
2019-03-28T14:43:13.979Z,10.56
2019-03-28T14:48:15.785Z,10.40
2019-03-28T14:53:17.629Z,10.31
2019-03-28T14:58:22.087Z,10.38
2019-03-28T15:03:26.955Z,10.42
2019-03-28T15:08:27.736Z,10.35
2019-03-28T15:13:31.284Z,10.20
2019-03-28T15:18:33.054Z,10.25
2019-03-28T15:23:35.210Z,10.22
2019-03-28T15:28:37.002Z,10.22
2019-03-28T15:33:40.109Z,10.14
2019-03-28T15:38:42.223Z,9.99
2019-03-28T15:43:44.107Z,9.88
2019-03-28T15:48:46.070Z,9.91
2019-03-28T15:53:47.910Z,10.00
2019-03-28T15:58:49.776Z,9.93
2019-03-28T16:03:53.374Z,9.82
2019-03-28T16:08:55.384Z,9.94
2019-03-28T16:13:57.184Z,9.77
2019-03-28T16:19:01.653Z,9.79
2019-03-28T16:24:04.005Z,9.95
2019-03-28T16:29:05.924Z,9.84
2019-03-28T16:34:09.684Z,9.71
2019-03-28T16:39:11.969Z,9.60
2019-03-28T16:44:15.173Z,9.46
2019-03-28T16:49:17.154Z,9.46
2019-03-28T16:54:19.090Z,9.29
2019-03-28T16:59:21.070Z,9.23
2019-03-28T17:04:24.075Z,9.29
2019-03-28T17:09:26.076Z,9.37
2019-03-28T17:14:28.110Z,9.28
2019-03-28T17:19:30.037Z,9.16
2019-03-28T17:24:32.063Z,9.09
2019-03-28T17:42:54.484Z,9.49
2019-03-28T17:47:56.533Z,9.22
2019-03-28T17:53:00.092Z,9.03
2019-03-28T17:58:02.068Z,8.96
2019-03-28T18:03:09.508Z,8.69
2019-03-28T18:08:09.107Z,8.52
2019-03-28T18:13:11.057Z,8.48
2019-03-28T18:18:14.431Z,8.14
2019-03-28T18:23:18.192Z,8.08
2019-03-28T18:28:20.020Z,7.90
2019-03-28T18:33:21.986Z,7.80
2019-03-28T18:38:23.752Z,7.52
2019-03-28T18:43:25.581Z,7.37
2019-03-28T18:48:34.370Z,7.27
2019-03-28T18:53:32.671Z,7.04
2019-03-28T18:58:34.521Z,7.05
2019-03-28T19:03:36.320Z,6.85
2019-03-28T19:08:38.137Z,6.56
2019-03-28T19:13:40.012Z,6.66
2019-03-28T19:18:41.839Z,6.38
2019-03-28T19:23:43.584Z,5.75
2019-03-28T19:28:45.476Z,5.76
2019-03-28T19:33:47.332Z,5.83
2019-03-28T19:38:49.440Z,5.85
2019-03-28T19:43:52.175Z,5.87
2019-03-28T19:48:53.947Z,5.87
2019-03-28T19:53:55.889Z,5.83
2019-03-28T19:58:59.140Z,5.17
2019-03-28T20:04:01.156Z,5.10
2019-03-28T20:09:15.721Z,5.29
2019-03-28T20:14:08.978Z,5.41
2019-03-28T20:19:10.855Z,4.96
2019-03-28T20:24:12.659Z,4.99
2019-03-28T20:29:14.684Z,5.02
2019-03-28T20:34:16.532Z,5.03
2019-03-28T20:39:18.538Z,5.18
2019-03-28T20:44:20.634Z,5.20
2019-03-28T20:49:22.552Z,4.92
2019-03-28T20:54:24.424Z,4.88
2019-03-28T20:59:26.334Z,4.80
2019-03-28T21:04:31.699Z,4.63
2019-03-28T21:09:31.949Z,4.68
2019-03-28T21:14:33.793Z,4.69
2019-03-28T21:19:35.577Z,4.72
2019-03-28T21:24:37.420Z,4.73
2019-03-28T21:29:48.730Z,4.19
2019-03-28T21:34:45.180Z,4.18
2019-03-28T21:39:47.054Z,3.90
2019-03-28T21:44:49.099Z,3.88
2019-03-28T21:49:51.001Z,3.94
2019-03-28T21:54:52.838Z,3.97
2019-03-28T21:59:54.702Z,3.97
2019-03-28T22:04:56.504Z,3.95
2019-03-28T22:09:58.407Z,3.83
2019-03-28T22:15:00.503Z,3.61
2019-03-28T22:20:05.098Z,3.27
2019-03-28T22:25:06.896Z,3.24
2019-03-28T22:30:08.633Z,3.30
2019-03-28T22:35:10.588Z,3.16
2019-03-28T22:40:12.491Z,3.25
2019-03-28T22:45:14.255Z,2.71
2019-03-28T22:50:16.035Z,2.36
2019-03-28T22:55:17.867Z,2.19
2019-03-28T23:00:21.894Z,2.35
2019-03-28T23:05:25.563Z,2.24
2019-03-28T23:10:27.281Z,2.15
2019-03-28T23:15:29.080Z,2.17
2019-03-28T23:20:33.611Z,1.98
2019-03-28T23:25:34.546Z,2.03
2019-03-28T23:30:36.275Z,2.19
2019-03-28T23:35:38.031Z,2.16
2019-03-28T23:40:39.778Z,1.88
2019-03-28T23:45:41.588Z,1.23
2019-03-28T23:50:43.408Z,1.26
2019-03-28T23:55:45.192Z,1.32
